Варандей

Карта отелей и гостиниц, располагающихся рядом с аэропортом Варандей :

Варандей Ненецкий автономный округ 68° 50' 54.3084" N, 58° 12' 2.8116" E
Варандей Ненецкий автономный округ 68° 50' 54.3084" N, 58° 12' 2.8116" E
Код аэродрома ИКАО
ULDW
Код аэродрома RU
УЛДВ
Координаты
N68.84842° E058.20078°
Превышение над уровнем моря
7
Основная полоса
04/22
Курс магнитный
038,9/218,9
Длина основной ВПП
1800
Ширина основной ВПП
33
Покрытие основной ВПП
Твёрдое (металл)
Освещение ВПП
Постоянное
Тип: 
Аэродром
Класс аэродрома: 
Международный
Принадлежность: 
ГА
Статус: 
Действующий
Сайт: 
ap-varandey.ru
E-mail аэродрома: 
vrndaeroport@utair-express.com
Страна: 
Россия
Регион: 
Ненецкий автономный округ
Город: 
Дополнительная информация: 
Оператор: Архангельский филиал ООО «ЮТэйр-Экспресс». Покрытие ВПП: металлические плиты К-1Д. Hкр=(500). ОСП ВПП-04: Hпор.=5м. БПРМ: 835-W (65), ДПРМ: 410-WR (210); ОСП ВПП-22 Hпор.=4м. БПРМ: 835-D (70); ДПРМ: 410-DN (215); ILS ВПП-04: 108.5-IWR УНГ=2°40' FAP N684817/E0575652.

Найти трансфер

С помощью этой формы Вы можете найти трансфер из аэропорта Варандей в город, аэропорт или вокзал:

Карта места

Javascript is required to view this map.

Погода в аэропортах:

Авиационная погода в Толмачево

Регион: 
Погода METAR: 
UNNT 171530Z 28004MPS 9999 -SHRA BKN060CB 17/09 Q0997 R25/290160 R34/////// NOSIG RMK QFE738/0984
Время наблюдения
2021-09-17T15:30:00Z
Температура C
17.0
Точка росы
9.0
Направление ветра
280
Скорость ветра (узлы)
8
Метео видимость
6.21
Явления погоды
-SHRA
Условия полета
VFR
Аэропорт подробнее: 

Авиационная погода в аэропорту Сокол

Регион: 
Погода METAR: 
UHMM 171600Z 10007MPS 9999 -SHRA BKN015CB OVC025 08/06 Q1012 RMK QFE744 R28/13005MPS
Время наблюдения
2021-09-17T16:00:00Z
Температура C
8.0
Точка росы
6.0
Направление ветра
100
Скорость ветра (узлы)
14
Метео видимость
6.21
Явления погоды
-SHRA
Условия полета
MVFR
Аэропорт подробнее: 

Авиационная погода в Закаталы

Регион: 
Погода METAR: 
UBBY 171600Z 09008KT 9999 VCTS SCT035CB OVC080 20/17 Q1017 R33/////// NOSIG RMK MT OBSC
Время наблюдения
2021-09-17T16:00:00Z
Температура C
20.0
Точка росы
17.0
Направление ветра
90
Скорость ветра (узлы)
8
Метео видимость
6.21
Явления погоды
VCTS
Условия полета
VFR

Авиационная погода в Якутске

Регион: 
Погода METAR: 
UEEE 171530Z 29002MPS 9999 -SHRA BKN020CB 07/06 Q0998 R23L/290155 NOSIG RMK QFE740
Время наблюдения
2021-09-17T15:30:00Z
Температура C
7.0
Точка росы
6.0
Направление ветра
290
Скорость ветра (узлы)
4
Метео видимость
6.21
Явления погоды
-SHRA
Условия полета
MVFR
Аэропорт подробнее: